sensor_id;sensor_type;location;lat;lon;timestamp;P1;durP1;ratioP1;P2;durP2;ratioP2
42754;SDS011;28407;51.830;5.684;2023-04-29T00:00:16;18.58;;;14.10;;
42754;SDS011;28407;51.830;5.684;2023-04-29T00:02:17;19.88;;;14.43;;
42754;SDS011;28407;51.830;5.684;2023-04-29T00:04:18;18.77;;;13.93;;
42754;SDS011;28407;51.830;5.684;2023-04-29T00:06:19;16.17;;;12.80;;
42754;SDS011;28407;51.830;5.684;2023-04-29T00:08:20;16.50;;;12.98;;
42754;SDS011;28407;51.830;5.684;2023-04-29T00:10:21;16.73;;;12.90;;
42754;SDS011;28407;51.830;5.684;2023-04-29T00:12:21;16.40;;;13.05;;
42754;SDS011;28407;51.830;5.684;2023-04-29T00:14:22;17.08;;;11.75;;
42754;SDS011;28407;51.830;5.684;2023-04-29T00:16:23;18.92;;;13.55;;
42754;SDS011;28407;51.830;5.684;2023-04-29T00:18:24;14.40;;;11.82;;
42754;SDS011;28407;51.830;5.684;2023-04-29T00:20:25;15.45;;;12.38;;
42754;SDS011;28407;51.830;5.684;2023-04-29T00:22:25;14.73;;;11.93;;
42754;SDS011;28407;51.830;5.684;2023-04-29T00:24:26;14.43;;;11.55;;
42754;SDS011;28407;51.830;5.684;2023-04-29T00:26:27;14.95;;;11.88;;
42754;SDS011;28407;51.830;5.684;2023-04-29T00:28:28;14.40;;;11.60;;
42754;SDS011;28407;51.830;5.684;2023-04-29T00:30:29;13.63;;;11.05;;
42754;SDS011;28407;51.830;5.684;2023-04-29T00:34:32;13.30;;;10.93;;
42754;SDS011;28407;51.830;5.684;2023-04-29T00:36:32;13.88;;;10.02;;
42754;SDS011;28407;51.830;5.684;2023-04-29T00:38:33;13.45;;;10.45;;
42754;SDS011;28407;51.830;5.684;2023-04-29T00:40:33;14.27;;;10.90;;
42754;SDS011;28407;51.830;5.684;2023-04-29T00:42:35;14.40;;;11.37;;
42754;SDS011;28407;51.830;5.684;2023-04-29T00:44:36;12.05;;;9.65;;
42754;SDS011;28407;51.830;5.684;2023-04-29T00:46:37;14.13;;;11.02;;
42754;SDS011;28407;51.830;5.684;2023-04-29T00:48:37;15.98;;;11.75;;
42754;SDS011;28407;51.830;5.684;2023-04-29T00:50:38;13.88;;;10.45;;
42754;SDS011;28407;51.830;5.684;2023-04-29T00:52:38;15.00;;;11.30;;
42754;SDS011;28407;51.830;5.684;2023-04-29T00:54:39;14.70;;;11.43;;
42754;SDS011;28407;51.830;5.684;2023-04-29T00:56:40;14.40;;;11.02;;
42754;SDS011;28407;51.830;5.684;2023-04-29T00:58:44;12.63;;;9.20;;
42754;SDS011;28407;51.830;5.684;2023-04-29T01:00:49;13.55;;;9.57;;
42754;SDS011;28407;51.830;5.684;2023-04-29T01:02:50;13.60;;;10.60;;
42754;SDS011;28407;51.830;5.684;2023-04-29T01:04:52;14.07;;;11.05;;
42754;SDS011;28407;51.830;5.684;2023-04-29T01:07:13;13.80;;;9.73;;
42754;SDS011;28407;51.830;5.684;2023-04-29T01:09:38;12.00;;;9.20;;
42754;SDS011;28407;51.830;5.684;2023-04-29T01:12:12;13.65;;;10.35;;
42754;SDS011;28407;51.830;5.684;2023-04-29T01:14:33;13.80;;;9.98;;
42754;SDS011;28407;51.830;5.684;2023-04-29T01:16:36;12.38;;;9.45;;
42754;SDS011;28407;51.830;5.684;2023-04-29T01:18:45;13.50;;;10.43;;
42754;SDS011;28407;51.830;5.684;2023-04-29T01:20:57;15.52;;;10.32;;
42754;SDS011;28407;51.830;5.684;2023-04-29T01:22:59;12.60;;;9.68;;
42754;SDS011;28407;51.830;5.684;2023-04-29T01:25:00;11.80;;;9.23;;
42754;SDS011;28407;51.830;5.684;2023-04-29T01:29:52;13.60;;;9.88;;
42754;SDS011;28407;51.830;5.684;2023-04-29T01:32:12;12.77;;;9.80;;
42754;SDS011;28407;51.830;5.684;2023-04-29T01:34:26;13.13;;;9.95;;
42754;SDS011;28407;51.830;5.684;2023-04-29T01:39:04;15.50;;;10.20;;
42754;SDS011;28407;51.830;5.684;2023-04-29T01:43:50;12.85;;;10.20;;
42754;SDS011;28407;51.830;5.684;2023-04-29T01:45:57;15.20;;;10.05;;
42754;SDS011;28407;51.830;5.684;2023-04-29T01:47:59;13.18;;;10.65;;
42754;SDS011;28407;51.830;5.684;2023-04-29T01:50:02;13.93;;;9.23;;
42754;SDS011;28407;51.830;5.684;2023-04-29T01:52:04;13.10;;;9.88;;
42754;SDS011;28407;51.830;5.684;2023-04-29T01:54:06;13.45;;;9.82;;
42754;SDS011;28407;51.830;5.684;2023-04-29T01:56:07;12.27;;;9.68;;
42754;SDS011;28407;51.830;5.684;2023-04-29T01:58:22;12.55;;;8.40;;
42754;SDS011;28407;51.830;5.684;2023-04-29T02:00:41;14.25;;;10.45;;
42754;SDS011;28407;51.830;5.684;2023-04-29T02:02:42;14.85;;;10.52;;
42754;SDS011;28407;51.830;5.684;2023-04-29T02:05:04;12.15;;;9.20;;
42754;SDS011;28407;51.830;5.684;2023-04-29T02:07:05;15.77;;;10.52;;
42754;SDS011;28407;51.830;5.684;2023-04-29T02:09:06;13.53;;;10.37;;
42754;SDS011;28407;51.830;5.684;2023-04-29T02:11:08;15.48;;;10.70;;
42754;SDS011;28407;51.830;5.684;2023-04-29T02:13:13;14.48;;;11.50;;
42754;SDS011;28407;51.830;5.684;2023-04-29T02:15:14;15.18;;;11.13;;
42754;SDS011;28407;51.830;5.684;2023-04-29T02:17:16;14.10;;;10.68;;
42754;SDS011;28407;51.830;5.684;2023-04-29T02:19:17;15.10;;;10.80;;
42754;SDS011;28407;51.830;5.684;2023-04-29T02:21:18;15.30;;;10.48;;
42754;SDS011;28407;51.830;5.684;2023-04-29T02:23:18;15.10;;;10.80;;
42754;SDS011;28407;51.830;5.684;2023-04-29T02:25:19;18.65;;;12.10;;
42754;SDS011;28407;51.830;5.684;2023-04-29T02:27:20;14.50;;;11.30;;
42754;SDS011;28407;51.830;5.684;2023-04-29T02:29:22;16.05;;;11.15;;
42754;SDS011;28407;51.830;5.684;2023-04-29T02:31:25;14.80;;;10.25;;
42754;SDS011;28407;51.830;5.684;2023-04-29T02:33:28;14.40;;;11.65;;
42754;SDS011;28407;51.830;5.684;2023-04-29T02:35:28;15.55;;;11.05;;
42754;SDS011;28407;51.830;5.684;2023-04-29T02:37:29;14.80;;;11.88;;
42754;SDS011;28407;51.830;5.684;2023-04-29T02:39:29;15.13;;;10.40;;
42754;SDS011;28407;51.830;5.684;2023-04-29T02:41:30;16.17;;;10.50;;
42754;SDS011;28407;51.830;5.684;2023-04-29T02:43:31;19.27;;;12.18;;
42754;SDS011;28407;51.830;5.684;2023-04-29T02:45:32;15.60;;;11.65;;
42754;SDS011;28407;51.830;5.684;2023-04-29T02:47:33;13.05;;;9.95;;
42754;SDS011;28407;51.830;5.684;2023-04-29T02:49:33;14.90;;;10.73;;
42754;SDS011;28407;51.830;5.684;2023-04-29T02:51:34;14.48;;;10.30;;
42754;SDS011;28407;51.830;5.684;2023-04-29T02:53:34;14.73;;;11.10;;
42754;SDS011;28407;51.830;5.684;2023-04-29T02:55:35;14.10;;;10.40;;
42754;SDS011;28407;51.830;5.684;2023-04-29T02:57:41;14.98;;;11.02;;
42754;SDS011;28407;51.830;5.684;2023-04-29T02:59:42;16.30;;;10.55;;
42754;SDS011;28407;51.830;5.684;2023-04-29T03:01:43;19.10;;;11.15;;
42754;SDS011;28407;51.830;5.684;2023-04-29T03:03:45;14.55;;;10.18;;
42754;SDS011;28407;51.830;5.684;2023-04-29T03:05:46;14.00;;;9.90;;
42754;SDS011;28407;51.830;5.684;2023-04-29T03:07:46;15.27;;;10.07;;
42754;SDS011;28407;51.830;5.684;2023-04-29T03:09:47;14.13;;;10.15;;
42754;SDS011;28407;51.830;5.684;2023-04-29T03:11:48;13.40;;;9.57;;
42754;SDS011;28407;51.830;5.684;2023-04-29T03:13:49;13.77;;;10.50;;
42754;SDS011;28407;51.830;5.684;2023-04-29T03:15:49;13.25;;;10.23;;
42754;SDS011;28407;51.830;5.684;2023-04-29T03:17:50;15.73;;;10.32;;
42754;SDS011;28407;51.830;5.684;2023-04-29T03:19:51;12.50;;;8.93;;
42754;SDS011;28407;51.830;5.684;2023-04-29T03:21:53;15.52;;;10.48;;
42754;SDS011;28407;51.830;5.684;2023-04-29T03:23:54;15.48;;;11.50;;
42754;SDS011;28407;51.830;5.684;2023-04-29T03:26:01;13.38;;;10.50;;
42754;SDS011;28407;51.830;5.684;2023-04-29T03:28:02;13.13;;;10.35;;
42754;SDS011;28407;51.830;5.684;2023-04-29T03:30:05;12.93;;;9.98;;
42754;SDS011;28407;51.830;5.684;2023-04-29T03:32:07;15.63;;;10.52;;
42754;SDS011;28407;51.830;5.684;2023-04-29T03:34:07;13.38;;;9.98;;
42754;SDS011;28407;51.830;5.684;2023-04-29T03:36:12;13.68;;;9.93;;
42754;SDS011;28407;51.830;5.684;2023-04-29T03:38:23;16.02;;;9.95;;
42754;SDS011;28407;51.830;5.684;2023-04-29T03:42:26;13.35;;;10.13;;
42754;SDS011;28407;51.830;5.684;2023-04-29T03:44:27;14.48;;;10.38;;
42754;SDS011;28407;51.830;5.684;2023-04-29T03:48:29;13.30;;;9.82;;
42754;SDS011;28407;51.830;5.684;2023-04-29T03:50:30;13.10;;;9.93;;
42754;SDS011;28407;51.830;5.684;2023-04-29T03:52:31;12.18;;;9.05;;
42754;SDS011;28407;51.830;5.684;2023-04-29T03:54:36;15.80;;;10.88;;
42754;SDS011;28407;51.830;5.684;2023-04-29T03:56:37;15.95;;;9.90;;
42754;SDS011;28407;51.830;5.684;2023-04-29T03:58:38;13.68;;;10.15;;
42754;SDS011;28407;51.830;5.684;2023-04-29T04:00:39;15.23;;;11.05;;
42754;SDS011;28407;51.830;5.684;2023-04-29T04:02:45;13.95;;;11.27;;
42754;SDS011;28407;51.830;5.684;2023-04-29T04:04:46;15.07;;;10.15;;
42754;SDS011;28407;51.830;5.684;2023-04-29T04:06:47;13.13;;;11.02;;
42754;SDS011;28407;51.830;5.684;2023-04-29T04:08:52;15.48;;;11.35;;
42754;SDS011;28407;51.830;5.684;2023-04-29T04:11:01;14.68;;;9.35;;
42754;SDS011;28407;51.830;5.684;2023-04-29T04:13:08;16.85;;;10.80;;
42754;SDS011;28407;51.830;5.684;2023-04-29T04:15:09;12.90;;;9.70;;
42754;SDS011;28407;51.830;5.684;2023-04-29T04:17:10;13.98;;;10.38;;
42754;SDS011;28407;51.830;5.684;2023-04-29T04:19:11;12.73;;;10.53;;
42754;SDS011;28407;51.830;5.684;2023-04-29T04:21:14;12.95;;;11.05;;
42754;SDS011;28407;51.830;5.684;2023-04-29T04:23:20;13.20;;;9.98;;
42754;SDS011;28407;51.830;5.684;2023-04-29T04:25:21;13.38;;;10.43;;
42754;SDS011;28407;51.830;5.684;2023-04-29T04:27:22;14.27;;;9.73;;
42754;SDS011;28407;51.830;5.684;2023-04-29T04:29:22;17.00;;;11.05;;
42754;SDS011;28407;51.830;5.684;2023-04-29T04:31:30;12.35;;;9.43;;
42754;SDS011;28407;51.830;5.684;2023-04-29T04:33:30;13.27;;;10.70;;
42754;SDS011;28407;51.830;5.684;2023-04-29T04:35:32;14.00;;;9.68;;
42754;SDS011;28407;51.830;5.684;2023-04-29T04:37:33;11.52;;;9.95;;
42754;SDS011;28407;51.830;5.684;2023-04-29T04:39:34;14.02;;;10.75;;
42754;SDS011;28407;51.830;5.684;2023-04-29T04:41:35;14.05;;;9.38;;
42754;SDS011;28407;51.830;5.684;2023-04-29T04:43:36;12.45;;;8.82;;
42754;SDS011;28407;51.830;5.684;2023-04-29T04:45:40;12.55;;;10.02;;
42754;SDS011;28407;51.830;5.684;2023-04-29T04:47:41;11.40;;;8.68;;
42754;SDS011;28407;51.830;5.684;2023-04-29T04:49:55;11.50;;;8.90;;
42754;SDS011;28407;51.830;5.684;2023-04-29T04:51:55;11.73;;;8.40;;
42754;SDS011;28407;51.830;5.684;2023-04-29T04:53:57;15.23;;;10.02;;
42754;SDS011;28407;51.830;5.684;2023-04-29T04:56:01;12.23;;;9.52;;
42754;SDS011;28407;51.830;5.684;2023-04-29T04:58:04;12.05;;;9.63;;
42754;SDS011;28407;51.830;5.684;2023-04-29T05:00:05;11.50;;;8.73;;
42754;SDS011;28407;51.830;5.684;2023-04-29T05:02:06;11.60;;;8.45;;
42754;SDS011;28407;51.830;5.684;2023-04-29T05:04:07;12.02;;;9.57;;
42754;SDS011;28407;51.830;5.684;2023-04-29T05:06:08;10.55;;;9.30;;
42754;SDS011;28407;51.830;5.684;2023-04-29T05:08:09;10.85;;;9.35;;
42754;SDS011;28407;51.830;5.684;2023-04-29T05:10:15;10.68;;;8.85;;
42754;SDS011;28407;51.830;5.684;2023-04-29T05:12:21;11.73;;;9.40;;
42754;SDS011;28407;51.830;5.684;2023-04-29T05:14:24;13.27;;;9.18;;
42754;SDS011;28407;51.830;5.684;2023-04-29T05:16:25;12.32;;;8.27;;
42754;SDS011;28407;51.830;5.684;2023-04-29T05:18:27;10.70;;;8.10;;
42754;SDS011;28407;51.830;5.684;2023-04-29T05:20:27;10.27;;;8.77;;
42754;SDS011;28407;51.830;5.684;2023-04-29T05:22:29;9.73;;;8.73;;
42754;SDS011;28407;51.830;5.684;2023-04-29T05:24:30;11.65;;;8.73;;
42754;SDS011;28407;51.830;5.684;2023-04-29T05:26:31;11.90;;;8.45;;
42754;SDS011;28407;51.830;5.684;2023-04-29T05:28:34;9.57;;;8.55;;
42754;SDS011;28407;51.830;5.684;2023-04-29T05:30:35;11.07;;;7.93;;
42754;SDS011;28407;51.830;5.684;2023-04-29T05:34:40;8.48;;;7.15;;
42754;SDS011;28407;51.830;5.684;2023-04-29T05:36:41;9.57;;;6.95;;
42754;SDS011;28407;51.830;5.684;2023-04-29T05:38:41;9.98;;;7.70;;
42754;SDS011;28407;51.830;5.684;2023-04-29T05:40:44;10.88;;;8.55;;
42754;SDS011;28407;51.830;5.684;2023-04-29T05:43:14;8.82;;;7.53;;
42754;SDS011;28407;51.830;5.684;2023-04-29T05:45:15;10.45;;;7.78;;
42754;SDS011;28407;51.830;5.684;2023-04-29T05:47:16;10.68;;;7.55;;
42754;SDS011;28407;51.830;5.684;2023-04-29T05:49:17;9.00;;;7.90;;
42754;SDS011;28407;51.830;5.684;2023-04-29T05:51:18;10.98;;;8.88;;
42754;SDS011;28407;51.830;5.684;2023-04-29T05:53:19;11.05;;;8.38;;
42754;SDS011;28407;51.830;5.684;2023-04-29T05:55:20;10.13;;;7.78;;
42754;SDS011;28407;51.830;5.684;2023-04-29T05:57:22;10.48;;;8.55;;
42754;SDS011;28407;51.830;5.684;2023-04-29T05:59:22;9.55;;;8.13;;
42754;SDS011;28407;51.830;5.684;2023-04-29T06:01:26;9.15;;;8.05;;
42754;SDS011;28407;51.830;5.684;2023-04-29T06:03:27;8.87;;;7.47;;
42754;SDS011;28407;51.830;5.684;2023-04-29T06:05:57;10.40;;;9.07;;
42754;SDS011;28407;51.830;5.684;2023-04-29T06:08:20;8.57;;;7.68;;
42754;SDS011;28407;51.830;5.684;2023-04-29T06:10:26;9.27;;;7.28;;
42754;SDS011;28407;51.830;5.684;2023-04-29T06:12:27;11.98;;;8.82;;
42754;SDS011;28407;51.830;5.684;2023-04-29T06:14:28;10.30;;;7.95;;
42754;SDS011;28407;51.830;5.684;2023-04-29T06:16:29;12.83;;;8.80;;
42754;SDS011;28407;51.830;5.684;2023-04-29T06:18:30;10.27;;;8.55;;
42754;SDS011;28407;51.830;5.684;2023-04-29T06:20:32;8.75;;;7.68;;
42754;SDS011;28407;51.830;5.684;2023-04-29T06:22:32;10.85;;;8.40;;
42754;SDS011;28407;51.830;5.684;2023-04-29T06:24:33;8.75;;;7.43;;
42754;SDS011;28407;51.830;5.684;2023-04-29T06:26:34;8.60;;;7.40;;
42754;SDS011;28407;51.830;5.684;2023-04-29T06:28:35;9.55;;;8.10;;
42754;SDS011;28407;51.830;5.684;2023-04-29T06:30:36;8.98;;;7.63;;
42754;SDS011;28407;51.830;5.684;2023-04-29T06:32:37;10.65;;;8.65;;
42754;SDS011;28407;51.830;5.684;2023-04-29T06:34:39;14.25;;;8.88;;
42754;SDS011;28407;51.830;5.684;2023-04-29T06:37:00;9.10;;;8.20;;
42754;SDS011;28407;51.830;5.684;2023-04-29T06:39:19;8.93;;;7.80;;
42754;SDS011;28407;51.830;5.684;2023-04-29T06:41:46;8.55;;;7.65;;
42754;SDS011;28407;51.830;5.684;2023-04-29T06:44:05;9.20;;;8.07;;
42754;SDS011;28407;51.830;5.684;2023-04-29T06:46:09;12.18;;;8.70;;
42754;SDS011;28407;51.830;5.684;2023-04-29T06:48:16;9.63;;;8.32;;
42754;SDS011;28407;51.830;5.684;2023-04-29T06:50:21;9.50;;;8.50;;
42754;SDS011;28407;51.830;5.684;2023-04-29T06:52:22;10.13;;;8.15;;
42754;SDS011;28407;51.830;5.684;2023-04-29T06:54:22;10.05;;;7.57;;
42754;SDS011;28407;51.830;5.684;2023-04-29T06:56:23;11.23;;;7.97;;
42754;SDS011;28407;51.830;5.684;2023-04-29T06:58:24;9.95;;;8.07;;
42754;SDS011;28407;51.830;5.684;2023-04-29T07:00:25;9.35;;;8.30;;
42754;SDS011;28407;51.830;5.684;2023-04-29T07:02:28;10.80;;;8.80;;
42754;SDS011;28407;51.830;5.684;2023-04-29T07:04:28;8.60;;;7.63;;
42754;SDS011;28407;51.830;5.684;2023-04-29T07:06:29;10.85;;;8.32;;
42754;SDS011;28407;51.830;5.684;2023-04-29T07:08:30;9.57;;;8.45;;
42754;SDS011;28407;51.830;5.684;2023-04-29T07:10:32;10.20;;;7.65;;
42754;SDS011;28407;51.830;5.684;2023-04-29T07:12:33;10.75;;;8.10;;
42754;SDS011;28407;51.830;5.684;2023-04-29T07:14:33;9.77;;;8.45;;
42754;SDS011;28407;51.830;5.684;2023-04-29T07:16:36;10.00;;;8.45;;
42754;SDS011;28407;51.830;5.684;2023-04-29T07:18:37;11.00;;;7.85;;
42754;SDS011;28407;51.830;5.684;2023-04-29T07:20:38;10.00;;;6.85;;
42754;SDS011;28407;51.830;5.684;2023-04-29T07:22:38;10.57;;;7.80;;
42754;SDS011;28407;51.830;5.684;2023-04-29T07:24:39;9.73;;;8.57;;
42754;SDS011;28407;51.830;5.684;2023-04-29T07:26:41;9.37;;;7.53;;
42754;SDS011;28407;51.830;5.684;2023-04-29T07:28:44;9.65;;;7.43;;
42754;SDS011;28407;51.830;5.684;2023-04-29T07:30:44;11.18;;;7.40;;
42754;SDS011;28407;51.830;5.684;2023-04-29T07:32:46;9.33;;;7.30;;
42754;SDS011;28407;51.830;5.684;2023-04-29T07:34:46;9.75;;;7.45;;
42754;SDS011;28407;51.830;5.684;2023-04-29T07:36:48;9.52;;;7.72;;
42754;SDS011;28407;51.830;5.684;2023-04-29T07:38:49;8.57;;;7.50;;
42754;SDS011;28407;51.830;5.684;2023-04-29T07:40:50;8.90;;;6.78;;
42754;SDS011;28407;51.830;5.684;2023-04-29T07:42:51;9.00;;;8.10;;
42754;SDS011;28407;51.830;5.684;2023-04-29T07:44:52;9.68;;;7.30;;
42754;SDS011;28407;51.830;5.684;2023-04-29T07:46:53;8.57;;;7.25;;
42754;SDS011;28407;51.830;5.684;2023-04-29T07:48:53;11.27;;;7.28;;
42754;SDS011;28407;51.830;5.684;2023-04-29T07:50:54;10.23;;;7.65;;
42754;SDS011;28407;51.830;5.684;2023-04-29T07:52:55;8.98;;;7.32;;
42754;SDS011;28407;51.830;5.684;2023-04-29T07:54:56;11.00;;;8.07;;
42754;SDS011;28407;51.830;5.684;2023-04-29T07:56:57;8.40;;;6.93;;
42754;SDS011;28407;51.830;5.684;2023-04-29T07:58:58;9.73;;;7.88;;
42754;SDS011;28407;51.830;5.684;2023-04-29T08:01:09;9.05;;;7.03;;
42754;SDS011;28407;51.830;5.684;2023-04-29T08:03:11;9.13;;;7.50;;
42754;SDS011;28407;51.830;5.684;2023-04-29T08:05:12;8.30;;;7.38;;
42754;SDS011;28407;51.830;5.684;2023-04-29T08:07:12;9.35;;;6.97;;
42754;SDS011;28407;51.830;5.684;2023-04-29T08:09:13;10.05;;;7.72;;
42754;SDS011;28407;51.830;5.684;2023-04-29T08:13:19;8.30;;;6.40;;
42754;SDS011;28407;51.830;5.684;2023-04-29T08:15:20;8.48;;;6.57;;
42754;SDS011;28407;51.830;5.684;2023-04-29T08:17:21;9.57;;;6.28;;
42754;SDS011;28407;51.830;5.684;2023-04-29T08:19:21;8.77;;;6.65;;
42754;SDS011;28407;51.830;5.684;2023-04-29T08:21:22;8.35;;;5.93;;
42754;SDS011;28407;51.830;5.684;2023-04-29T08:23:23;9.75;;;6.63;;
42754;SDS011;28407;51.830;5.684;2023-04-29T08:25:24;8.35;;;6.53;;
42754;SDS011;28407;51.830;5.684;2023-04-29T08:27:26;8.73;;;7.30;;
42754;SDS011;28407;51.830;5.684;2023-04-29T08:29:26;8.52;;;7.15;;
42754;SDS011;28407;51.830;5.684;2023-04-29T08:31:27;9.20;;;6.45;;
42754;SDS011;28407;51.830;5.684;2023-04-29T08:33:27;7.90;;;6.50;;
42754;SDS011;28407;51.830;5.684;2023-04-29T08:35:28;7.30;;;5.85;;
42754;SDS011;28407;51.830;5.684;2023-04-29T08:37:28;8.07;;;6.45;;
42754;SDS011;28407;51.830;5.684;2023-04-29T08:39:29;8.05;;;6.35;;
42754;SDS011;28407;51.830;5.684;2023-04-29T08:41:30;7.80;;;5.60;;
42754;SDS011;28407;51.830;5.684;2023-04-29T08:43:32;7.38;;;6.55;;
42754;SDS011;28407;51.830;5.684;2023-04-29T08:45:36;6.68;;;5.72;;
42754;SDS011;28407;51.830;5.684;2023-04-29T08:47:38;6.68;;;5.60;;
42754;SDS011;28407;51.830;5.684;2023-04-29T08:49:39;9.60;;;6.57;;
42754;SDS011;28407;51.830;5.684;2023-04-29T08:51:41;6.60;;;5.35;;
42754;SDS011;28407;51.830;5.684;2023-04-29T08:53:41;8.35;;;6.03;;
42754;SDS011;28407;51.830;5.684;2023-04-29T08:55:45;7.53;;;6.68;;
42754;SDS011;28407;51.830;5.684;2023-04-29T08:57:47;7.30;;;5.35;;
42754;SDS011;28407;51.830;5.684;2023-04-29T08:59:49;8.25;;;6.63;;
42754;SDS011;28407;51.830;5.684;2023-04-29T09:01:50;6.68;;;5.20;;
42754;SDS011;28407;51.830;5.684;2023-04-29T09:04:00;8.50;;;5.70;;
42754;SDS011;28407;51.830;5.684;2023-04-29T09:06:33;7.53;;;5.50;;
42754;SDS011;28407;51.830;5.684;2023-04-29T09:08:34;7.07;;;5.80;;
42754;SDS011;28407;51.830;5.684;2023-04-29T09:10:35;7.65;;;6.45;;
42754;SDS011;28407;51.830;5.684;2023-04-29T09:12:36;7.53;;;6.28;;
42754;SDS011;28407;51.830;5.684;2023-04-29T09:14:37;7.68;;;6.10;;
42754;SDS011;28407;51.830;5.684;2023-04-29T09:16:38;7.82;;;5.95;;
42754;SDS011;28407;51.830;5.684;2023-04-29T09:20:42;7.20;;;5.30;;
42754;SDS011;28407;51.830;5.684;2023-04-29T09:22:46;10.50;;;6.07;;
42754;SDS011;28407;51.830;5.684;2023-04-29T09:24:48;5.03;;;4.30;;
42754;SDS011;28407;51.830;5.684;2023-04-29T09:26:49;6.38;;;5.30;;
42754;SDS011;28407;51.830;5.684;2023-04-29T09:29:09;5.82;;;4.45;;
42754;SDS011;28407;51.830;5.684;2023-04-29T09:33:13;6.35;;;4.53;;
42754;SDS011;28407;51.830;5.684;2023-04-29T09:35:25;5.15;;;4.47;;
42754;SDS011;28407;51.830;5.684;2023-04-29T09:37:27;6.15;;;4.65;;
42754;SDS011;28407;51.830;5.684;2023-04-29T09:39:27;5.18;;;4.35;;
42754;SDS011;28407;51.830;5.684;2023-04-29T09:41:41;5.72;;;4.57;;
42754;SDS011;28407;51.830;5.684;2023-04-29T09:44:03;5.28;;;4.55;;
42754;SDS011;28407;51.830;5.684;2023-04-29T09:46:04;4.95;;;4.30;;
42754;SDS011;28407;51.830;5.684;2023-04-29T09:48:11;6.60;;;4.68;;
42754;SDS011;28407;51.830;5.684;2023-04-29T09:50:13;5.43;;;4.65;;
42754;SDS011;28407;51.830;5.684;2023-04-29T09:52:15;5.97;;;5.00;;
42754;SDS011;28407;51.830;5.684;2023-04-29T09:54:20;5.50;;;4.80;;
42754;SDS011;28407;51.830;5.684;2023-04-29T09:56:27;5.32;;;4.53;;
42754;SDS011;28407;51.830;5.684;2023-04-29T09:58:30;6.30;;;4.47;;
42754;SDS011;28407;51.830;5.684;2023-04-29T10:00:39;6.45;;;4.60;;
42754;SDS011;28407;51.830;5.684;2023-04-29T10:02:40;6.95;;;4.93;;
42754;SDS011;28407;51.830;5.684;2023-04-29T10:04:46;6.43;;;5.00;;
42754;SDS011;28407;51.830;5.684;2023-04-29T10:06:53;6.30;;;4.82;;
42754;SDS011;28407;51.830;5.684;2023-04-29T10:08:54;5.95;;;4.72;;
42754;SDS011;28407;51.830;5.684;2023-04-29T10:11:05;4.80;;;4.07;;
42754;SDS011;28407;51.830;5.684;2023-04-29T10:13:06;5.30;;;4.60;;
42754;SDS011;28407;51.830;5.684;2023-04-29T10:15:19;6.03;;;4.75;;
42754;SDS011;28407;51.830;5.684;2023-04-29T10:17:44;6.35;;;4.45;;
42754;SDS011;28407;51.830;5.684;2023-04-29T10:21:49;5.38;;;4.07;;
42754;SDS011;28407;51.830;5.684;2023-04-29T10:23:49;5.93;;;4.55;;
42754;SDS011;28407;51.830;5.684;2023-04-29T10:25:51;5.15;;;4.30;;
42754;SDS011;28407;51.830;5.684;2023-04-29T10:27:54;4.53;;;3.90;;
42754;SDS011;28407;51.830;5.684;2023-04-29T10:29:55;5.43;;;3.83;;
42754;SDS011;28407;51.830;5.684;2023-04-29T10:31:57;5.60;;;4.22;;
42754;SDS011;28407;51.830;5.684;2023-04-29T10:33:58;5.32;;;4.00;;
42754;SDS011;28407;51.830;5.684;2023-04-29T10:36:00;4.57;;;3.65;;
42754;SDS011;28407;51.830;5.684;2023-04-29T10:38:04;4.03;;;3.33;;
42754;SDS011;28407;51.830;5.684;2023-04-29T10:47:30;6.57;;;4.40;;
42754;SDS011;28407;51.830;5.684;2023-04-29T10:49:34;4.63;;;3.05;;
42754;SDS011;28407;51.830;5.684;2023-04-29T10:51:41;3.55;;;2.90;;
42754;SDS011;28407;51.830;5.684;2023-04-29T10:56:08;4.57;;;3.40;;
42754;SDS011;28407;51.830;5.684;2023-04-29T11:00:35;4.68;;;3.03;;
42754;SDS011;28407;51.830;5.684;2023-04-29T11:07:05;4.10;;;3.25;;
42754;SDS011;28407;51.830;5.684;2023-04-29T11:09:13;4.50;;;3.78;;
42754;SDS011;28407;51.830;5.684;2023-04-29T11:11:14;3.35;;;2.60;;
42754;SDS011;28407;51.830;5.684;2023-04-29T11:15:25;3.78;;;2.78;;
42754;SDS011;28407;51.830;5.684;2023-04-29T11:17:25;5.15;;;3.58;;
42754;SDS011;28407;51.830;5.684;2023-04-29T11:19:34;3.70;;;2.88;;
42754;SDS011;28407;51.830;5.684;2023-04-29T11:21:39;4.05;;;2.72;;
42754;SDS011;28407;51.830;5.684;2023-04-29T11:23:40;5.07;;;2.88;;
42754;SDS011;28407;51.830;5.684;2023-04-29T11:25:41;3.30;;;2.50;;
42754;SDS011;28407;51.830;5.684;2023-04-29T11:27:42;3.17;;;2.60;;
42754;SDS011;28407;51.830;5.684;2023-04-29T11:29:45;4.68;;;2.20;;
42754;SDS011;28407;51.830;5.684;2023-04-29T11:31:52;2.85;;;2.47;;
42754;SDS011;28407;51.830;5.684;2023-04-29T11:33:58;3.78;;;2.80;;
42754;SDS011;28407;51.830;5.684;2023-04-29T11:35:59;4.45;;;2.92;;
42754;SDS011;28407;51.830;5.684;2023-04-29T11:38:00;4.38;;;3.13;;
42754;SDS011;28407;51.830;5.684;2023-04-29T11:40:01;3.60;;;2.65;;
42754;SDS011;28407;51.830;5.684;2023-04-29T11:42:02;2.90;;;2.30;;
42754;SDS011;28407;51.830;5.684;2023-04-29T11:44:06;6.18;;;2.88;;
42754;SDS011;28407;51.830;5.684;2023-04-29T11:46:12;4.55;;;2.70;;
42754;SDS011;28407;51.830;5.684;2023-04-29T11:48:17;4.03;;;2.80;;
42754;SDS011;28407;51.830;5.684;2023-04-29T11:50:18;4.50;;;2.80;;
42754;SDS011;28407;51.830;5.684;2023-04-29T11:52:19;3.45;;;2.42;;
42754;SDS011;28407;51.830;5.684;2023-04-29T11:54:19;4.10;;;2.83;;
42754;SDS011;28407;51.830;5.684;2023-04-29T11:56:21;2.83;;;2.33;;
42754;SDS011;28407;51.830;5.684;2023-04-29T11:58:24;3.25;;;2.45;;
42754;SDS011;28407;51.830;5.684;2023-04-29T12:00:25;3.90;;;2.90;;
42754;SDS011;28407;51.830;5.684;2023-04-29T12:02:29;3.85;;;2.75;;
42754;SDS011;28407;51.830;5.684;2023-04-29T12:04:30;5.72;;;2.40;;
42754;SDS011;28407;51.830;5.684;2023-04-29T12:06:31;4.13;;;2.78;;
42754;SDS011;28407;51.830;5.684;2023-04-29T12:08:31;3.45;;;2.60;;
42754;SDS011;28407;51.830;5.684;2023-04-29T12:10:36;4.22;;;2.92;;
42754;SDS011;28407;51.830;5.684;2023-04-29T12:12:37;3.72;;;2.78;;
42754;SDS011;28407;51.830;5.684;2023-04-29T12:14:48;3.80;;;2.45;;
42754;SDS011;28407;51.830;5.684;2023-04-29T12:16:49;4.00;;;2.43;;
42754;SDS011;28407;51.830;5.684;2023-04-29T12:18:51;3.95;;;2.90;;
42754;SDS011;28407;51.830;5.684;2023-04-29T12:20:52;4.63;;;3.57;;
42754;SDS011;28407;51.830;5.684;2023-04-29T12:22:54;2.90;;;2.28;;
42754;SDS011;28407;51.830;5.684;2023-04-29T12:24:55;2.50;;;2.10;;
42754;SDS011;28407;51.830;5.684;2023-04-29T12:26:56;3.25;;;2.42;;
42754;SDS011;28407;51.830;5.684;2023-04-29T12:28:58;3.38;;;2.13;;
42754;SDS011;28407;51.830;5.684;2023-04-29T12:30:59;3.53;;;2.33;;
42754;SDS011;28407;51.830;5.684;2023-04-29T12:33:01;3.53;;;2.13;;
42754;SDS011;28407;51.830;5.684;2023-04-29T12:35:02;2.87;;;2.40;;
42754;SDS011;28407;51.830;5.684;2023-04-29T12:37:02;4.15;;;2.60;;
42754;SDS011;28407;51.830;5.684;2023-04-29T12:39:04;4.75;;;2.38;;
42754;SDS011;28407;51.830;5.684;2023-04-29T12:41:08;2.90;;;2.10;;
42754;SDS011;28407;51.830;5.684;2023-04-29T12:43:09;2.67;;;2.33;;
42754;SDS011;28407;51.830;5.684;2023-04-29T12:47:31;3.75;;;2.50;;
42754;SDS011;28407;51.830;5.684;2023-04-29T12:49:36;3.15;;;2.60;;
42754;SDS011;28407;51.830;5.684;2023-04-29T12:51:39;3.75;;;2.40;;
42754;SDS011;28407;51.830;5.684;2023-04-29T12:53:40;3.15;;;2.38;;
42754;SDS011;28407;51.830;5.684;2023-04-29T12:55:40;4.15;;;2.20;;
42754;SDS011;28407;51.830;5.684;2023-04-29T12:57:41;2.97;;;2.33;;
42754;SDS011;28407;51.830;5.684;2023-04-29T12:59:42;2.70;;;2.03;;